createdAt,value
2022-09-28T00:00:04.101Z,87.00
2022-09-28T00:03:06.873Z,86.85
2022-09-28T00:06:12.233Z,86.60
2022-09-28T00:09:15.207Z,86.39
2022-09-28T00:12:19.152Z,86.46
2022-09-28T00:15:21.943Z,86.56
2022-09-28T00:18:24.712Z,86.79
2022-09-28T00:21:29.056Z,86.33
2022-09-28T00:24:31.591Z,86.78
2022-09-28T00:27:35.527Z,87.31
2022-09-28T00:30:38.173Z,87.38
2022-09-28T00:33:41.940Z,87.21
2022-09-28T00:36:46.699Z,87.71
2022-09-28T00:39:49.510Z,87.72
2022-09-28T00:42:53.567Z,87.46
2022-09-28T00:45:59.931Z,87.65
2022-09-28T00:49:04.573Z,87.61
2022-09-28T00:52:09.421Z,87.87
2022-09-28T00:55:16.354Z,88.42
2022-09-28T00:58:22.542Z,88.38
2022-09-28T01:01:25.089Z,88.51
2022-09-28T01:04:30.003Z,89.46
2022-09-28T01:07:33.176Z,89.42
2022-09-28T01:10:35.820Z,90.07
2022-09-28T01:13:40.863Z,90.12
2022-09-28T01:16:48.027Z,90.13
2022-09-28T01:20:14.322Z,90.03
2022-09-28T01:23:33.690Z,89.35
2022-09-28T01:26:46.834Z,89.00
2022-09-28T01:29:56.274Z,89.65
2022-09-28T01:33:04.052Z,89.20
2022-09-28T01:36:12.011Z,89.29
2022-09-28T01:39:17.906Z,89.14
2022-09-28T01:42:25.012Z,89.26
2022-09-28T01:45:31.193Z,89.12
2022-09-28T01:48:37.222Z,88.78
2022-09-28T01:51:42.664Z,88.87
2022-09-28T01:54:47.417Z,88.50
2022-09-28T01:57:53.872Z,88.03
2022-09-28T02:01:00.837Z,87.79
2022-09-28T02:04:05.989Z,87.29
2022-09-28T02:07:11.283Z,87.52
2022-09-28T02:10:16.966Z,87.09
2022-09-28T02:13:24.886Z,87.06
2022-09-28T02:16:32.709Z,86.80
2022-09-28T02:19:36.667Z,86.55
2022-09-28T02:22:43.685Z,87.11
2022-09-28T02:25:49.831Z,86.17
2022-09-28T02:28:53.920Z,85.97
2022-09-28T02:31:56.785Z,85.37
2022-09-28T02:34:59.486Z,85.33
2022-09-28T02:38:02.588Z,85.02
2022-09-28T02:41:08.284Z,84.66
2022-09-28T02:44:22.899Z,84.74
2022-09-28T02:47:33.090Z,84.79
2022-09-28T02:50:40.707Z,84.94
2022-09-28T02:54:07.541Z,85.23
2022-09-28T02:57:21.754Z,85.90
2022-09-28T03:00:25.900Z,85.70
2022-09-28T03:03:34.913Z,86.27
2022-09-28T03:06:42.461Z,87.58
2022-09-28T03:09:48.509Z,87.80
2022-09-28T03:12:51.674Z,88.11
2022-09-28T03:16:08.519Z,87.70
2022-09-28T03:19:12.071Z,88.37
2022-09-28T03:22:14.641Z,88.25
2022-09-28T03:25:17.423Z,88.23
2022-09-28T03:28:21.339Z,88.56
2022-09-28T03:31:25.407Z,88.86
2022-09-28T03:34:28.111Z,89.08
2022-09-28T03:37:30.707Z,88.45
2022-09-28T03:40:33.405Z,88.50
2022-09-28T03:43:36.169Z,88.87
2022-09-28T03:46:40.073Z,89.66
2022-09-28T03:49:42.786Z,90.13
2022-09-28T03:52:45.380Z,90.61
2022-09-28T03:55:48.017Z,90.32
2022-09-28T03:58:50.700Z,90.95
2022-09-28T04:01:54.983Z,91.34
2022-09-28T04:04:57.842Z,91.72
2022-09-28T04:08:00.552Z,92.13
2022-09-28T04:11:03.670Z,91.65
2022-09-28T04:14:07.333Z,91.13
2022-09-28T04:17:11.367Z,93.13
2022-09-28T04:20:14.034Z,93.47
2022-09-28T04:23:16.946Z,93.20
2022-09-28T04:26:21.435Z,93.91
2022-09-28T04:29:23.425Z,94.03
2022-09-28T04:32:27.412Z,93.82
2022-09-28T04:35:29.988Z,91.99
2022-09-28T04:38:51.978Z,91.71
2022-09-28T04:41:56.006Z,91.55
2022-09-28T04:44:59.040Z,91.87
2022-09-28T04:48:03.414Z,91.55
2022-09-28T04:51:06.184Z,91.65
2022-09-28T04:54:08.817Z,91.85
2022-09-28T04:57:11.492Z,92.32
2022-09-28T05:00:15.239Z,92.03
2022-09-28T05:03:19.154Z,92.55
2022-09-28T05:06:22.684Z,92.25
2022-09-28T05:09:25.400Z,93.12
2022-09-28T05:12:28.127Z,93.48
2022-09-28T05:15:31.028Z,93.85
2022-09-28T05:18:35.058Z,93.82
2022-09-28T05:21:37.765Z,93.31
2022-09-28T05:24:40.419Z,93.42
2022-09-28T05:27:43.114Z,94.04
2022-09-28T05:30:45.716Z,92.97
2022-09-28T05:33:49.719Z,93.37
2022-09-28T05:36:52.576Z,93.64
2022-09-28T05:39:55.424Z,93.38
2022-09-28T05:43:00.816Z,93.51
2022-09-28T05:46:03.516Z,93.63
2022-09-28T05:49:07.570Z,92.57
2022-09-28T05:52:10.218Z,92.48
2022-09-28T05:55:12.840Z,93.20
2022-09-28T05:58:15.466Z,93.70
2022-09-28T06:01:18.028Z,93.62
2022-09-28T06:04:22.589Z,93.06
2022-09-28T06:07:25.517Z,92.99
2022-09-28T06:10:29.655Z,94.01
2022-09-28T06:13:32.416Z,93.94
2022-09-28T06:16:38.253Z,93.85
2022-09-28T06:19:46.024Z,93.05
2022-09-28T06:22:52.294Z,93.18
2022-09-28T06:25:55.223Z,93.02
2022-09-28T06:28:57.922Z,93.14
2022-09-28T06:32:01.275Z,93.14
2022-09-28T06:35:05.955Z,92.11
2022-09-28T06:38:08.797Z,91.29
2022-09-28T06:41:12.246Z,91.05
2022-09-28T06:44:15.478Z,90.83
2022-09-28T06:47:18.209Z,91.04
2022-09-28T06:50:22.516Z,90.26
2022-09-28T06:53:25.165Z,89.33
2022-09-28T06:56:32.589Z,88.40
2022-09-28T06:59:35.800Z,87.59
2022-09-28T07:02:38.528Z,87.50
2022-09-28T07:05:44.773Z,86.55
2022-09-28T07:08:54.378Z,87.68
2022-09-28T07:12:10.788Z,88.63
2022-09-28T07:15:13.383Z,88.45
2022-09-28T07:18:16.922Z,89.36
2022-09-28T07:21:29.211Z,89.26
2022-09-28T07:24:32.646Z,88.12
2022-09-28T07:27:37.144Z,87.40
2022-09-28T07:30:39.895Z,86.33
2022-09-28T07:33:42.715Z,86.36
2022-09-28T07:36:46.673Z,84.11
2022-09-28T07:40:06.860Z,83.73
2022-09-28T07:43:09.572Z,83.39
2022-09-28T07:46:13.098Z,81.80
2022-09-28T07:49:16.783Z,81.32
2022-09-28T07:52:21.518Z,79.73
2022-09-28T07:55:24.209Z,78.75
2022-09-28T07:58:26.825Z,77.81
2022-09-28T08:01:30.575Z,76.75
2022-09-28T08:04:33.469Z,76.36
2022-09-28T08:07:38.304Z,73.99
2022-09-28T08:10:46.531Z,73.34
2022-09-28T08:13:50.894Z,73.06
2022-09-28T08:16:53.644Z,71.94
2022-09-28T08:20:14.211Z,70.09
2022-09-28T08:23:18.603Z,69.76
2022-09-28T08:26:21.752Z,69.98
2022-09-28T08:29:24.429Z,70.51
2022-09-28T08:32:26.963Z,68.75
2022-09-28T08:35:29.658Z,69.40
2022-09-28T08:38:34.774Z,66.76
2022-09-28T08:41:44.300Z,63.87
2022-09-28T08:44:49.696Z,61.85
2022-09-28T08:48:13.071Z,64.33
2022-09-28T08:51:19.880Z,64.40
2022-09-28T08:54:32.654Z,66.53
2022-09-28T08:57:41.990Z,67.24
2022-09-28T09:00:48.630Z,70.68
2022-09-28T09:03:52.644Z,70.47
2022-09-28T09:07:11.172Z,68.26
2022-09-28T09:10:37.233Z,65.72
2022-09-28T09:13:55.146Z,63.45
2022-09-28T09:17:05.620Z,60.15
2022-09-28T09:20:19.429Z,60.58
2022-09-28T09:23:25.209Z,60.24
2022-09-28T09:26:36.515Z,59.47
2022-09-28T09:29:50.210Z,57.84
2022-09-28T09:33:11.926Z,56.69
2022-09-28T09:36:28.097Z,56.45
2022-09-28T09:39:40.401Z,56.32
2022-09-28T09:42:55.523Z,58.50
2022-09-28T09:46:10.318Z,59.96
2022-09-28T09:49:17.875Z,59.34
2022-09-28T09:52:24.593Z,59.27
2022-09-28T09:55:30.515Z,60.38
2022-09-28T09:58:37.439Z,59.44
2022-09-28T10:01:42.226Z,58.01
2022-09-28T10:04:46.939Z,57.63
2022-09-28T10:07:54.184Z,55.70
2022-09-28T10:11:07.567Z,55.50
2022-09-28T10:14:15.196Z,54.49
2022-09-28T10:17:20.126Z,53.26
2022-09-28T10:20:23.099Z,53.09
2022-09-28T10:23:27.838Z,56.16
2022-09-28T10:26:34.508Z,55.64
2022-09-28T10:29:46.414Z,54.55
2022-09-28T10:32:49.828Z,53.63
2022-09-28T10:35:52.592Z,54.54
2022-09-28T10:38:55.882Z,54.53
2022-09-28T10:42:00.371Z,55.60
2022-09-28T10:45:08.270Z,54.76
2022-09-28T10:48:17.887Z,52.45
2022-09-28T10:51:20.880Z,52.48
2022-09-28T10:54:25.146Z,51.76
2022-09-28T10:57:29.260Z,50.72
2022-09-28T11:00:40.113Z,50.18
2022-09-28T11:03:51.230Z,51.07
2022-09-28T11:06:54.522Z,50.96
2022-09-28T11:09:58.476Z,52.34
2022-09-28T11:13:01.284Z,52.27
2022-09-28T11:16:05.514Z,53.31
2022-09-28T11:19:28.314Z,52.92
2022-09-28T11:22:41.728Z,51.04
2022-09-28T11:25:45.286Z,52.68
2022-09-28T11:28:47.697Z,52.26
2022-09-28T11:31:51.630Z,52.41
2022-09-28T11:34:59.862Z,51.34
2022-09-28T11:38:12.262Z,51.24
2022-09-28T11:41:28.432Z,51.40
2022-09-28T11:44:38.726Z,49.90
2022-09-28T11:47:50.908Z,49.04
2022-09-28T11:50:55.786Z,48.25
2022-09-28T11:54:01.715Z,49.27
2022-09-28T11:57:06.152Z,49.16
2022-09-28T12:00:14.986Z,48.68
2022-09-28T12:03:23.077Z,48.09
2022-09-28T12:06:30.599Z,48.81
2022-09-28T12:09:37.032Z,45.99
2022-09-28T12:12:42.881Z,46.17
2022-09-28T12:16:13.298Z,46.50
2022-09-28T12:19:17.943Z,45.61
2022-09-28T12:22:24.370Z,43.89
2022-09-28T12:25:28.996Z,43.55
2022-09-28T12:28:36.009Z,43.14
2022-09-28T12:31:40.283Z,42.12
2022-09-28T12:34:44.594Z,42.02
2022-09-28T12:37:59.569Z,41.72
2022-09-28T12:41:06.881Z,41.15
2022-09-28T12:44:42.512Z,40.98
2022-09-28T12:48:11.702Z,39.44
2022-09-28T12:51:28.980Z,41.85
2022-09-28T12:54:54.258Z,41.07
2022-09-28T12:58:00.458Z,41.04
2022-09-28T13:01:11.056Z,40.72
2022-09-28T13:04:31.178Z,38.67
2022-09-28T13:07:40.261Z,39.59
2022-09-28T13:10:49.019Z,39.65
2022-09-28T13:13:57.466Z,39.52
2022-09-28T13:17:04.551Z,38.97
2022-09-28T13:20:16.119Z,39.84
2022-09-28T13:23:22.634Z,38.30
2022-09-28T13:26:28.163Z,36.96
2022-09-28T13:29:32.037Z,35.40
2022-09-28T13:32:35.928Z,34.75
2022-09-28T13:35:43.067Z,35.08
2022-09-28T13:38:52.138Z,33.38
2022-09-28T13:41:55.978Z,33.32
2022-09-28T13:45:35.100Z,34.57
2022-09-28T13:48:46.144Z,35.76
2022-09-28T13:52:02.758Z,36.61
2022-09-28T13:55:19.173Z,35.83
2022-09-28T13:58:25.401Z,35.64
2022-09-28T14:01:31.596Z,34.05
2022-09-28T14:04:53.210Z,32.43
2022-09-28T14:07:58.334Z,34.61
2022-09-28T14:11:40.156Z,36.47
2022-09-28T14:14:50.152Z,35.68
2022-09-28T14:17:59.299Z,38.15
2022-09-28T14:21:31.259Z,37.53
2022-09-28T14:24:57.819Z,35.74
2022-09-28T14:28:02.580Z,34.93
2022-09-28T14:31:11.284Z,35.82
2022-09-28T14:34:34.175Z,36.30
2022-09-28T14:37:56.813Z,35.04
2022-09-28T14:41:16.236Z,33.94
2022-09-28T14:44:18.917Z,35.85
2022-09-28T14:47:34.999Z,35.01
2022-09-28T14:50:37.615Z,33.27
2022-09-28T14:53:40.336Z,33.85
2022-09-28T14:56:45.880Z,36.58
2022-09-28T14:59:48.706Z,36.85
2022-09-28T15:02:55.331Z,38.18
2022-09-28T15:05:58.603Z,37.35
2022-09-28T15:09:01.220Z,34.97
2022-09-28T15:12:07.455Z,34.20
2022-09-28T15:15:28.227Z,34.31
2022-09-28T15:18:43.881Z,35.43
2022-09-28T15:21:48.654Z,35.63
2022-09-28T15:25:00.018Z,34.15
2022-09-28T15:28:17.488Z,33.46
2022-09-28T15:31:22.099Z,32.65
2022-09-28T15:34:48.446Z,33.15
2022-09-28T15:37:51.978Z,33.66
2022-09-28T15:40:55.273Z,34.06
2022-09-28T15:44:13.036Z,34.80
2022-09-28T15:47:20.945Z,35.49
2022-09-28T15:50:27.874Z,36.50
2022-09-28T15:53:31.295Z,38.10
2022-09-28T15:56:33.872Z,38.80
2022-09-28T15:59:38.287Z,40.29
2022-09-28T16:03:00.278Z,38.65
2022-09-28T16:06:09.550Z,37.04
2022-09-28T16:09:40.242Z,36.81
2022-09-28T16:12:48.101Z,40.99
2022-09-28T16:15:57.994Z,42.47
2022-09-28T16:19:03.103Z,43.68
2022-09-28T16:22:09.314Z,44.70
2022-09-28T16:25:17.783Z,45.60
2022-09-28T16:28:32.460Z,46.24
2022-09-28T16:31:41.318Z,47.71
2022-09-28T16:34:44.375Z,47.27
2022-09-28T16:37:49.505Z,48.57
2022-09-28T16:40:53.820Z,49.27
2022-09-28T16:44:00.956Z,50.15
2022-09-28T16:47:03.602Z,52.02
2022-09-28T16:50:07.009Z,53.22
2022-09-28T16:53:33.216Z,56.29
2022-09-28T16:56:36.985Z,58.19
2022-09-28T16:59:39.772Z,59.61
2022-09-28T17:02:46.746Z,61.52
2022-09-28T17:05:50.818Z,62.92
2022-09-28T17:08:58.376Z,64.68
2022-09-28T17:12:01.139Z,65.46
2022-09-28T17:15:04.187Z,66.62
2022-09-28T17:18:07.089Z,67.38
2022-09-28T17:21:13.179Z,68.56
2022-09-28T17:24:17.436Z,69.76
2022-09-28T17:27:21.021Z,70.95
2022-09-28T17:30:25.797Z,71.73
2022-09-28T17:33:29.705Z,71.80
2022-09-28T17:36:32.544Z,72.86
2022-09-28T17:39:37.843Z,72.83
2022-09-28T17:42:40.407Z,73.11
2022-09-28T17:45:46.338Z,74.30
2022-09-28T17:48:49.180Z,74.52
2022-09-28T17:51:52.970Z,74.96
2022-09-28T17:54:57.031Z,75.87
2022-09-28T17:58:01.013Z,76.14
2022-09-28T18:01:03.673Z,76.42
2022-09-28T18:04:08.090Z,77.12
2022-09-28T18:07:10.704Z,77.21
2022-09-28T18:10:16.667Z,76.85
2022-09-28T18:13:19.305Z,77.23
2022-09-28T18:16:22.703Z,77.02
2022-09-28T18:19:28.577Z,76.76
2022-09-28T18:22:34.588Z,77.10
2022-09-28T18:25:41.593Z,77.57
2022-09-28T18:28:44.291Z,77.71
2022-09-28T18:31:48.853Z,78.20
2022-09-28T18:34:51.565Z,78.49
2022-09-28T18:37:54.550Z,78.84
2022-09-28T18:40:58.752Z,79.78
2022-09-28T18:44:01.701Z,79.63
2022-09-28T18:47:04.512Z,80.21
2022-09-28T18:50:08.356Z,80.53
2022-09-28T18:53:14.094Z,80.83
2022-09-28T18:56:19.247Z,80.95
2022-09-28T18:59:21.991Z,80.66
2022-09-28T19:02:24.818Z,80.71
2022-09-28T19:05:28.705Z,80.34
2022-09-28T19:08:31.356Z,81.16
2022-09-28T19:11:35.430Z,81.00
2022-09-28T19:14:38.722Z,81.17
2022-09-28T19:17:42.456Z,80.41
2022-09-28T19:20:45.205Z,80.74
2022-09-28T19:23:49.688Z,80.78
2022-09-28T19:26:54.466Z,81.04
2022-09-28T19:29:57.236Z,81.61
2022-09-28T19:33:00.037Z,81.76
2022-09-28T19:36:04.489Z,81.72
2022-09-28T19:39:07.721Z,81.68
2022-09-28T19:42:11.807Z,81.45
2022-09-28T19:45:14.534Z,81.69
2022-09-28T19:48:17.190Z,81.60
2022-09-28T19:51:20.023Z,81.48
2022-09-28T19:54:25.440Z,81.97
2022-09-28T19:57:31.681Z,82.26
2022-09-28T20:00:34.418Z,81.74
2022-09-28T20:03:38.566Z,82.06
2022-09-28T20:06:41.904Z,81.63
2022-09-28T20:09:44.613Z,81.70
2022-09-28T20:12:48.670Z,81.21
2022-09-28T20:15:51.336Z,81.35
2022-09-28T20:18:58.393Z,81.41
2022-09-28T20:22:02.531Z,82.07
2022-09-28T20:25:05.550Z,81.25
2022-09-28T20:28:09.673Z,81.54
2022-09-28T20:31:14.228Z,81.36
2022-09-28T20:34:16.988Z,81.82
2022-09-28T20:37:19.664Z,80.90
2022-09-28T20:40:22.781Z,80.88
2022-09-28T20:43:27.033Z,79.68
2022-09-28T20:46:30.176Z,79.46
2022-09-28T20:49:33.007Z,78.92
2022-09-28T20:52:35.638Z,79.34
2022-09-28T20:55:38.254Z,79.19
2022-09-28T20:58:42.179Z,78.88
2022-09-28T21:01:45.182Z,78.79
2022-09-28T21:04:48.327Z,79.09
2022-09-28T21:07:51.021Z,79.47
2022-09-28T21:10:54.502Z,79.14
2022-09-28T21:14:00.427Z,78.75
2022-09-28T21:17:03.011Z,78.78
2022-09-28T21:20:06.628Z,78.08
2022-09-28T21:23:09.249Z,77.84
2022-09-28T21:26:13.292Z,78.15
2022-09-28T21:29:17.305Z,78.01
2022-09-28T21:32:19.913Z,78.21
2022-09-28T21:35:22.704Z,78.40
2022-09-28T21:38:25.376Z,78.37
2022-09-28T21:41:29.157Z,78.43
2022-09-28T21:44:33.091Z,78.72
2022-09-28T21:47:35.740Z,78.62
2022-09-28T21:50:38.426Z,78.92
2022-09-28T21:53:41.161Z,79.28
2022-09-28T21:56:43.914Z,80.17
2022-09-28T21:59:48.249Z,80.79
2022-09-28T22:02:51.252Z,81.42
2022-09-28T22:05:54.018Z,81.69
2022-09-28T22:08:56.917Z,82.51
2022-09-28T22:11:59.589Z,83.40
2022-09-28T22:15:03.681Z,84.06
2022-09-28T22:18:06.475Z,84.46
2022-09-28T22:21:11.220Z,85.53
2022-09-28T22:24:14.016Z,85.68
2022-09-28T22:27:16.791Z,86.31
2022-09-28T22:30:21.040Z,86.95
2022-09-28T22:33:24.401Z,87.44
2022-09-28T22:36:27.515Z,88.33
2022-09-28T22:39:34.206Z,89.13
2022-09-28T22:42:39.497Z,89.05
2022-09-28T22:45:43.619Z,89.65
2022-09-28T22:48:48.065Z,89.32
2022-09-28T22:51:50.820Z,89.37
2022-09-28T22:54:53.936Z,89.62
2022-09-28T22:57:56.812Z,89.72
2022-09-28T23:01:08.180Z,90.22
2022-09-28T23:04:10.940Z,91.26
2022-09-28T23:07:13.593Z,90.92
2022-09-28T23:10:16.447Z,91.20
2022-09-28T23:13:19.261Z,91.92
2022-09-28T23:16:25.601Z,91.44
2022-09-28T23:19:28.414Z,91.80
2022-09-28T23:22:31.298Z,91.85
2022-09-28T23:25:33.906Z,92.82
2022-09-28T23:28:36.567Z,92.30
2022-09-28T23:31:40.635Z,93.10
2022-09-28T23:34:43.537Z,92.97
2022-09-28T23:37:50.578Z,92.30
2022-09-28T23:40:53.390Z,92.46
2022-09-28T23:43:56.156Z,91.84
2022-09-28T23:47:00.232Z,91.94
2022-09-28T23:50:02.932Z,92.20
2022-09-28T23:53:06.604Z,92.63
2022-09-28T23:56:09.050Z,93.22
2022-09-28T23:59:11.762Z,93.00
